sensor_id;sensor_type;location;lat;lon;timestamp;P1;durP1;ratioP1;P2;durP2;ratioP2
18649;SDS011;9454;53.516;10.478;2023-03-26T00:01:03;4.13;;;0.90;;
18649;SDS011;9454;53.516;10.478;2023-03-26T00:04:10;3.75;;;0.73;;
18649;SDS011;9454;53.516;10.478;2023-03-26T00:07:13;7.25;;;0.95;;
18649;SDS011;9454;53.516;10.478;2023-03-26T00:10:17;2.92;;;0.70;;
18649;SDS011;9454;53.516;10.478;2023-03-26T00:13:21;4.20;;;0.75;;
18649;SDS011;9454;53.516;10.478;2023-03-26T00:16:27;8.63;;;0.90;;
18649;SDS011;9454;53.516;10.478;2023-03-26T00:19:33;4.63;;;0.93;;
18649;SDS011;9454;53.516;10.478;2023-03-26T00:22:42;2.08;;;0.73;;
18649;SDS011;9454;53.516;10.478;2023-03-26T00:25:45;5.28;;;1.08;;
18649;SDS011;9454;53.516;10.478;2023-03-26T00:28:51;9.90;;;1.80;;
18649;SDS011;9454;53.516;10.478;2023-03-26T00:31:55;4.40;;;1.27;;
18649;SDS011;9454;53.516;10.478;2023-03-26T00:35:04;4.65;;;1.02;;
18649;SDS011;9454;53.516;10.478;2023-03-26T00:38:08;3.85;;;1.10;;
18649;SDS011;9454;53.516;10.478;2023-03-26T00:41:14;2.75;;;0.85;;
18649;SDS011;9454;53.516;10.478;2023-03-26T00:44:27;3.70;;;1.00;;
18649;SDS011;9454;53.516;10.478;2023-03-26T00:47:31;10.15;;;1.25;;
18649;SDS011;9454;53.516;10.478;2023-03-26T00:50:38;3.58;;;0.95;;
18649;SDS011;9454;53.516;10.478;2023-03-26T00:53:42;11.77;;;2.10;;
18649;SDS011;9454;53.516;10.478;2023-03-26T00:56:46;3.58;;;1.02;;
18649;SDS011;9454;53.516;10.478;2023-03-26T00:59:51;11.77;;;1.25;;
18649;SDS011;9454;53.516;10.478;2023-03-26T01:02:54;8.77;;;1.00;;
18649;SDS011;9454;53.516;10.478;2023-03-26T01:06:01;8.77;;;1.42;;
18649;SDS011;9454;53.516;10.478;2023-03-26T01:09:08;3.42;;;1.33;;
18649;SDS011;9454;53.516;10.478;2023-03-26T01:12:14;4.43;;;0.80;;
18649;SDS011;9454;53.516;10.478;2023-03-26T01:15:19;4.72;;;1.08;;
18649;SDS011;9454;53.516;10.478;2023-03-26T01:18:23;9.07;;;1.15;;
18649;SDS011;9454;53.516;10.478;2023-03-26T01:21:30;5.97;;;1.20;;
18649;SDS011;9454;53.516;10.478;2023-03-26T01:24:36;7.88;;;1.67;;
18649;SDS011;9454;53.516;10.478;2023-03-26T01:27:41;6.50;;;1.02;;
18649;SDS011;9454;53.516;10.478;2023-03-26T01:30:47;8.10;;;1.60;;
18649;SDS011;9454;53.516;10.478;2023-03-26T01:33:53;4.82;;;1.10;;
18649;SDS011;9454;53.516;10.478;2023-03-26T01:37:04;6.22;;;1.73;;
18649;SDS011;9454;53.516;10.478;2023-03-26T01:40:16;3.97;;;1.30;;
18649;SDS011;9454;53.516;10.478;2023-03-26T01:43:23;5.72;;;1.23;;
18649;SDS011;9454;53.516;10.478;2023-03-26T01:46:28;4.28;;;1.30;;
18649;SDS011;9454;53.516;10.478;2023-03-26T01:49:36;5.22;;;1.35;;
18649;SDS011;9454;53.516;10.478;2023-03-26T01:52:40;6.43;;;1.10;;
18649;SDS011;9454;53.516;10.478;2023-03-26T01:55:48;9.80;;;1.15;;
18649;SDS011;9454;53.516;10.478;2023-03-26T01:59:03;6.13;;;0.88;;
18649;SDS011;9454;53.516;10.478;2023-03-26T02:02:10;1.92;;;0.77;;
18649;SDS011;9454;53.516;10.478;2023-03-26T02:05:16;2.47;;;0.57;;
18649;SDS011;9454;53.516;10.478;2023-03-26T02:08:23;3.78;;;1.00;;
18649;SDS011;9454;53.516;10.478;2023-03-26T02:11:33;1.52;;;0.65;;
18649;SDS011;9454;53.516;10.478;2023-03-26T02:14:39;1.90;;;0.50;;
18649;SDS011;9454;53.516;10.478;2023-03-26T02:17:44;2.95;;;0.60;;
18649;SDS011;9454;53.516;10.478;2023-03-26T02:20:49;2.60;;;0.52;;
18649;SDS011;9454;53.516;10.478;2023-03-26T02:23:55;1.63;;;0.60;;
18649;SDS011;9454;53.516;10.478;2023-03-26T02:27:10;3.65;;;0.60;;
18649;SDS011;9454;53.516;10.478;2023-03-26T02:30:15;3.90;;;0.75;;
18649;SDS011;9454;53.516;10.478;2023-03-26T02:33:24;2.33;;;0.73;;
18649;SDS011;9454;53.516;10.478;2023-03-26T02:36:29;2.30;;;0.70;;
18649;SDS011;9454;53.516;10.478;2023-03-26T02:39:39;4.38;;;1.05;;
18649;SDS011;9454;53.516;10.478;2023-03-26T02:42:54;6.72;;;0.77;;
18649;SDS011;9454;53.516;10.478;2023-03-26T02:46:01;10.07;;;1.10;;
18649;SDS011;9454;53.516;10.478;2023-03-26T02:49:30;7.00;;;1.17;;
18649;SDS011;9454;53.516;10.478;2023-03-26T02:52:41;5.13;;;1.05;;
18649;SDS011;9454;53.516;10.478;2023-03-26T02:55:46;4.60;;;0.90;;
18649;SDS011;9454;53.516;10.478;2023-03-26T02:58:58;6.78;;;0.77;;
18649;SDS011;9454;53.516;10.478;2023-03-26T03:02:01;5.53;;;0.85;;
18649;SDS011;9454;53.516;10.478;2023-03-26T03:05:08;7.18;;;1.10;;
18649;SDS011;9454;53.516;10.478;2023-03-26T03:08:12;1.95;;;0.60;;
18649;SDS011;9454;53.516;10.478;2023-03-26T03:11:39;6.28;;;0.90;;
18649;SDS011;9454;53.516;10.478;2023-03-26T03:14:47;5.75;;;0.70;;
18649;SDS011;9454;53.516;10.478;2023-03-26T03:17:50;1.85;;;0.65;;
18649;SDS011;9454;53.516;10.478;2023-03-26T03:20:54;2.75;;;1.00;;
18649;SDS011;9454;53.516;10.478;2023-03-26T03:23:58;6.35;;;1.15;;
18649;SDS011;9454;53.516;10.478;2023-03-26T03:27:07;2.95;;;0.90;;
18649;SDS011;9454;53.516;10.478;2023-03-26T03:30:32;4.10;;;0.73;;
18649;SDS011;9454;53.516;10.478;2023-03-26T03:33:57;1.33;;;0.57;;
18649;SDS011;9454;53.516;10.478;2023-03-26T03:37:04;4.78;;;0.82;;
18649;SDS011;9454;53.516;10.478;2023-03-26T03:40:19;4.53;;;0.80;;
18649;SDS011;9454;53.516;10.478;2023-03-26T03:43:22;9.02;;;0.90;;
18649;SDS011;9454;53.516;10.478;2023-03-26T03:46:38;4.43;;;0.75;;
18649;SDS011;9454;53.516;10.478;2023-03-26T03:49:43;3.75;;;0.90;;
18649;SDS011;9454;53.516;10.478;2023-03-26T03:52:46;4.82;;;0.55;;
18649;SDS011;9454;53.516;10.478;2023-03-26T03:55:51;1.67;;;0.35;;
18649;SDS011;9454;53.516;10.478;2023-03-26T03:59:17;4.53;;;0.52;;
18649;SDS011;9454;53.516;10.478;2023-03-26T04:02:24;5.45;;;0.90;;
18649;SDS011;9454;53.516;10.478;2023-03-26T04:05:36;2.22;;;0.93;;
18649;SDS011;9454;53.516;10.478;2023-03-26T04:08:43;2.00;;;0.50;;
18649;SDS011;9454;53.516;10.478;2023-03-26T04:11:50;3.28;;;0.85;;
18649;SDS011;9454;53.516;10.478;2023-03-26T04:15:05;5.05;;;1.13;;
18649;SDS011;9454;53.516;10.478;2023-03-26T04:18:10;4.82;;;1.05;;
18649;SDS011;9454;53.516;10.478;2023-03-26T04:21:17;4.75;;;0.60;;
18649;SDS011;9454;53.516;10.478;2023-03-26T04:24:22;1.48;;;0.80;;
18649;SDS011;9454;53.516;10.478;2023-03-26T04:27:45;1.88;;;0.80;;
18649;SDS011;9454;53.516;10.478;2023-03-26T04:31:04;6.80;;;0.90;;
18649;SDS011;9454;53.516;10.478;2023-03-26T04:34:16;1.50;;;0.55;;
18649;SDS011;9454;53.516;10.478;2023-03-26T04:37:45;3.08;;;0.70;;
18649;SDS011;9454;53.516;10.478;2023-03-26T04:40:54;7.22;;;0.82;;
18649;SDS011;9454;53.516;10.478;2023-03-26T04:44:28;3.58;;;0.73;;
18649;SDS011;9454;53.516;10.478;2023-03-26T04:47:39;2.20;;;0.90;;
18649;SDS011;9454;53.516;10.478;2023-03-26T04:50:45;6.68;;;1.00;;
18649;SDS011;9454;53.516;10.478;2023-03-26T04:53:52;6.40;;;0.80;;
18649;SDS011;9454;53.516;10.478;2023-03-26T04:57:05;5.63;;;1.10;;
18649;SDS011;9454;53.516;10.478;2023-03-26T05:00:18;3.03;;;0.80;;
18649;SDS011;9454;53.516;10.478;2023-03-26T05:03:28;13.68;;;1.40;;
18649;SDS011;9454;53.516;10.478;2023-03-26T05:06:39;12.30;;;0.90;;
18649;SDS011;9454;53.516;10.478;2023-03-26T05:10:03;9.85;;;1.25;;
18649;SDS011;9454;53.516;10.478;2023-03-26T05:13:11;5.65;;;0.98;;
18649;SDS011;9454;53.516;10.478;2023-03-26T05:16:21;9.77;;;1.05;;
18649;SDS011;9454;53.516;10.478;2023-03-26T05:19:38;7.50;;;1.00;;
18649;SDS011;9454;53.516;10.478;2023-03-26T05:22:44;11.50;;;1.42;;
18649;SDS011;9454;53.516;10.478;2023-03-26T05:25:55;4.88;;;1.05;;
18649;SDS011;9454;53.516;10.478;2023-03-26T05:28:59;6.32;;;0.80;;
18649;SDS011;9454;53.516;10.478;2023-03-26T05:32:12;5.63;;;0.93;;
18649;SDS011;9454;53.516;10.478;2023-03-26T05:35:16;4.10;;;0.75;;
18649;SDS011;9454;53.516;10.478;2023-03-26T05:38:21;4.22;;;0.80;;
18649;SDS011;9454;53.516;10.478;2023-03-26T05:41:25;10.88;;;0.98;;
18649;SDS011;9454;53.516;10.478;2023-03-26T05:44:32;6.28;;;0.80;;
18649;SDS011;9454;53.516;10.478;2023-03-26T05:47:47;6.07;;;0.75;;
18649;SDS011;9454;53.516;10.478;2023-03-26T05:50:54;6.80;;;0.90;;
18649;SDS011;9454;53.516;10.478;2023-03-26T05:54:02;2.13;;;0.55;;
18649;SDS011;9454;53.516;10.478;2023-03-26T05:57:27;5.85;;;0.90;;
18649;SDS011;9454;53.516;10.478;2023-03-26T06:00:56;4.57;;;0.90;;
18649;SDS011;9454;53.516;10.478;2023-03-26T06:04:11;5.55;;;0.73;;
18649;SDS011;9454;53.516;10.478;2023-03-26T06:07:26;5.03;;;0.77;;
18649;SDS011;9454;53.516;10.478;2023-03-26T06:10:56;8.73;;;1.05;;
18649;SDS011;9454;53.516;10.478;2023-03-26T06:14:04;2.03;;;0.75;;
18649;SDS011;9454;53.516;10.478;2023-03-26T06:17:10;11.13;;;0.95;;
18649;SDS011;9454;53.516;10.478;2023-03-26T06:20:40;4.28;;;0.90;;
18649;SDS011;9454;53.516;10.478;2023-03-26T06:24:25;6.18;;;0.75;;
18649;SDS011;9454;53.516;10.478;2023-03-26T06:27:59;3.85;;;0.80;;
18649;SDS011;9454;53.516;10.478;2023-03-26T06:31:15;2.20;;;0.75;;
18649;SDS011;9454;53.516;10.478;2023-03-26T06:34:28;8.00;;;0.70;;
18649;SDS011;9454;53.516;10.478;2023-03-26T06:37:35;3.30;;;0.80;;
18649;SDS011;9454;53.516;10.478;2023-03-26T06:40:40;5.45;;;1.02;;
18649;SDS011;9454;53.516;10.478;2023-03-26T06:44:04;11.80;;;1.00;;
18649;SDS011;9454;53.516;10.478;2023-03-26T06:47:10;4.95;;;0.75;;
18649;SDS011;9454;53.516;10.478;2023-03-26T06:50:25;5.03;;;0.90;;
18649;SDS011;9454;53.516;10.478;2023-03-26T06:53:42;4.38;;;0.93;;
18649;SDS011;9454;53.516;10.478;2023-03-26T06:57:06;6.68;;;1.02;;
18649;SDS011;9454;53.516;10.478;2023-03-26T07:00:18;13.70;;;1.10;;
18649;SDS011;9454;53.516;10.478;2023-03-26T07:03:42;5.00;;;1.00;;
18649;SDS011;9454;53.516;10.478;2023-03-26T07:07:05;5.78;;;1.10;;
18649;SDS011;9454;53.516;10.478;2023-03-26T07:10:28;5.60;;;0.88;;
18649;SDS011;9454;53.516;10.478;2023-03-26T07:13:43;5.75;;;1.20;;
18649;SDS011;9454;53.516;10.478;2023-03-26T07:17:08;12.23;;;0.80;;
18649;SDS011;9454;53.516;10.478;2023-03-26T07:20:34;4.32;;;1.00;;
18649;SDS011;9454;53.516;10.478;2023-03-26T07:23:45;9.02;;;1.60;;
18649;SDS011;9454;53.516;10.478;2023-03-26T07:27:00;7.47;;;1.17;;
18649;SDS011;9454;53.516;10.478;2023-03-26T07:30:13;4.90;;;1.02;;
18649;SDS011;9454;53.516;10.478;2023-03-26T07:33:41;6.65;;;0.80;;
18649;SDS011;9454;53.516;10.478;2023-03-26T07:36:59;1.17;;;0.75;;
18649;SDS011;9454;53.516;10.478;2023-03-26T07:40:26;8.65;;;1.25;;
18649;SDS011;9454;53.516;10.478;2023-03-26T07:44:11;3.80;;;1.02;;
18649;SDS011;9454;53.516;10.478;2023-03-26T07:47:44;7.25;;;1.10;;
18649;SDS011;9454;53.516;10.478;2023-03-26T07:51:20;8.45;;;1.05;;
18649;SDS011;9454;53.516;10.478;2023-03-26T07:54:41;8.77;;;1.60;;
18649;SDS011;9454;53.516;10.478;2023-03-26T07:58:16;5.45;;;0.73;;
18649;SDS011;9454;53.516;10.478;2023-03-26T08:01:53;5.97;;;1.10;;
18649;SDS011;9454;53.516;10.478;2023-03-26T08:05:16;9.98;;;1.30;;
18649;SDS011;9454;53.516;10.478;2023-03-26T08:08:40;11.50;;;1.33;;
18649;SDS011;9454;53.516;10.478;2023-03-26T08:12:05;2.70;;;1.08;;
18649;SDS011;9454;53.516;10.478;2023-03-26T08:15:14;1.98;;;0.90;;
18649;SDS011;9454;53.516;10.478;2023-03-26T08:18:25;10.63;;;1.63;;
18649;SDS011;9454;53.516;10.478;2023-03-26T08:21:32;7.97;;;1.75;;
18649;SDS011;9454;53.516;10.478;2023-03-26T08:24:42;6.97;;;0.80;;
18649;SDS011;9454;53.516;10.478;2023-03-26T08:27:53;11.55;;;1.02;;
18649;SDS011;9454;53.516;10.478;2023-03-26T08:31:02;5.63;;;1.05;;
18649;SDS011;9454;53.516;10.478;2023-03-26T08:34:07;9.48;;;1.25;;
18649;SDS011;9454;53.516;10.478;2023-03-26T08:37:12;7.32;;;1.23;;
18649;SDS011;9454;53.516;10.478;2023-03-26T08:40:25;5.13;;;0.88;;
18649;SDS011;9454;53.516;10.478;2023-03-26T08:43:39;6.15;;;1.23;;
18649;SDS011;9454;53.516;10.478;2023-03-26T08:46:52;6.25;;;1.38;;
18649;SDS011;9454;53.516;10.478;2023-03-26T08:50:12;7.43;;;1.30;;
18649;SDS011;9454;53.516;10.478;2023-03-26T08:56:52;6.53;;;1.35;;
18649;SDS011;9454;53.516;10.478;2023-03-26T09:06:58;13.10;;;1.25;;
18649;SDS011;9454;53.516;10.478;2023-03-26T09:10:13;10.05;;;1.40;;
18649;SDS011;9454;53.516;10.478;2023-03-26T09:13:32;10.23;;;1.45;;
18649;SDS011;9454;53.516;10.478;2023-03-26T09:16:54;6.97;;;1.45;;
18649;SDS011;9454;53.516;10.478;2023-03-26T09:23:30;9.00;;;1.95;;
18649;SDS011;9454;53.516;10.478;2023-03-26T09:26:44;18.15;;;1.95;;
18649;SDS011;9454;53.516;10.478;2023-03-26T09:30:12;10.48;;;1.50;;
18649;SDS011;9454;53.516;10.478;2023-03-26T09:33:36;13.45;;;1.88;;
18649;SDS011;9454;53.516;10.478;2023-03-26T09:36:52;9.82;;;1.50;;
18649;SDS011;9454;53.516;10.478;2023-03-26T09:40:01;12.40;;;1.33;;
18649;SDS011;9454;53.516;10.478;2023-03-26T09:43:19;19.98;;;2.33;;
18649;SDS011;9454;53.516;10.478;2023-03-26T09:46:29;6.72;;;1.40;;
18649;SDS011;9454;53.516;10.478;2023-03-26T09:49:38;7.38;;;1.55;;
18649;SDS011;9454;53.516;10.478;2023-03-26T09:52:48;11.75;;;1.23;;
18649;SDS011;9454;53.516;10.478;2023-03-26T09:55:58;18.35;;;1.67;;
18649;SDS011;9454;53.516;10.478;2023-03-26T10:02:37;4.20;;;1.10;;
18649;SDS011;9454;53.516;10.478;2023-03-26T10:05:50;17.63;;;1.98;;
18649;SDS011;9454;53.516;10.478;2023-03-26T10:09:04;11.27;;;1.42;;
18649;SDS011;9454;53.516;10.478;2023-03-26T10:12:15;10.15;;;1.58;;
18649;SDS011;9454;53.516;10.478;2023-03-26T10:15:28;11.10;;;1.80;;
18649;SDS011;9454;53.516;10.478;2023-03-26T10:18:42;11.52;;;1.67;;
18649;SDS011;9454;53.516;10.478;2023-03-26T10:21:53;21.15;;;1.50;;
18649;SDS011;9454;53.516;10.478;2023-03-26T10:28:25;12.88;;;1.58;;
18649;SDS011;9454;53.516;10.478;2023-03-26T10:31:36;9.23;;;1.70;;
18649;SDS011;9454;53.516;10.478;2023-03-26T10:38:07;9.07;;;1.25;;
18649;SDS011;9454;53.516;10.478;2023-03-26T10:41:16;13.35;;;1.40;;
18649;SDS011;9454;53.516;10.478;2023-03-26T10:48:01;9.55;;;1.63;;
18649;SDS011;9454;53.516;10.478;2023-03-26T10:51:19;15.75;;;1.65;;
18649;SDS011;9454;53.516;10.478;2023-03-26T10:54:28;10.93;;;1.75;;
18649;SDS011;9454;53.516;10.478;2023-03-26T10:57:40;9.40;;;1.55;;
18649;SDS011;9454;53.516;10.478;2023-03-26T11:00:46;9.25;;;1.58;;
18649;SDS011;9454;53.516;10.478;2023-03-26T11:03:52;16.80;;;1.98;;
18649;SDS011;9454;53.516;10.478;2023-03-26T11:06:58;10.13;;;1.92;;
18649;SDS011;9454;53.516;10.478;2023-03-26T11:10:08;11.20;;;1.42;;
18649;SDS011;9454;53.516;10.478;2023-03-26T11:13:16;12.85;;;2.08;;
18649;SDS011;9454;53.516;10.478;2023-03-26T11:16:24;4.30;;;1.17;;
18649;SDS011;9454;53.516;10.478;2023-03-26T11:19:34;12.80;;;1.50;;
18649;SDS011;9454;53.516;10.478;2023-03-26T11:22:45;10.45;;;1.58;;
18649;SDS011;9454;53.516;10.478;2023-03-26T11:25:57;13.07;;;1.75;;
18649;SDS011;9454;53.516;10.478;2023-03-26T11:29:14;12.15;;;1.70;;
18649;SDS011;9454;53.516;10.478;2023-03-26T11:32:35;11.43;;;1.38;;
18649;SDS011;9454;53.516;10.478;2023-03-26T11:35:42;8.15;;;1.40;;
18649;SDS011;9454;53.516;10.478;2023-03-26T11:38:49;7.70;;;1.42;;
18649;SDS011;9454;53.516;10.478;2023-03-26T11:42:02;12.60;;;1.48;;
18649;SDS011;9454;53.516;10.478;2023-03-26T11:45:15;5.75;;;1.60;;
18649;SDS011;9454;53.516;10.478;2023-03-26T11:48:22;18.83;;;2.22;;
18649;SDS011;9454;53.516;10.478;2023-03-26T11:51:28;9.45;;;1.80;;
18649;SDS011;9454;53.516;10.478;2023-03-26T11:54:34;13.57;;;1.58;;
18649;SDS011;9454;53.516;10.478;2023-03-26T11:57:42;13.63;;;1.30;;
18649;SDS011;9454;53.516;10.478;2023-03-26T12:00:47;7.40;;;1.58;;
18649;SDS011;9454;53.516;10.478;2023-03-26T12:03:57;10.65;;;1.88;;
18649;SDS011;9454;53.516;10.478;2023-03-26T12:07:05;13.65;;;1.67;;
18649;SDS011;9454;53.516;10.478;2023-03-26T12:10:20;16.92;;;1.67;;
18649;SDS011;9454;53.516;10.478;2023-03-26T12:13:33;5.18;;;1.58;;
18649;SDS011;9454;53.516;10.478;2023-03-26T12:16:55;9.65;;;1.38;;
18649;SDS011;9454;53.516;10.478;2023-03-26T12:19:59;14.52;;;2.03;;
18649;SDS011;9454;53.516;10.478;2023-03-26T12:23:24;14.25;;;1.90;;
18649;SDS011;9454;53.516;10.478;2023-03-26T12:26:35;10.13;;;1.10;;
18649;SDS011;9454;53.516;10.478;2023-03-26T12:29:42;11.20;;;1.48;;
18649;SDS011;9454;53.516;10.478;2023-03-26T12:32:46;2.40;;;0.85;;
18649;SDS011;9454;53.516;10.478;2023-03-26T12:35:55;8.73;;;1.73;;
18649;SDS011;9454;53.516;10.478;2023-03-26T12:39:03;11.60;;;1.75;;
18649;SDS011;9454;53.516;10.478;2023-03-26T12:42:45;25.98;;;2.47;;
18649;SDS011;9454;53.516;10.478;2023-03-26T12:46:23;8.43;;;1.65;;
18649;SDS011;9454;53.516;10.478;2023-03-26T12:50:05;4.53;;;1.17;;
18649;SDS011;9454;53.516;10.478;2023-03-26T12:53:46;9.13;;;1.25;;
18649;SDS011;9454;53.516;10.478;2023-03-26T12:56:55;6.70;;;1.42;;
18649;SDS011;9454;53.516;10.478;2023-03-26T13:00:27;10.57;;;2.10;;
18649;SDS011;9454;53.516;10.478;2023-03-26T13:03:38;16.52;;;1.67;;
18649;SDS011;9454;53.516;10.478;2023-03-26T13:06:47;9.10;;;1.75;;
18649;SDS011;9454;53.516;10.478;2023-03-26T13:13:32;6.75;;;1.50;;
18649;SDS011;9454;53.516;10.478;2023-03-26T13:16:45;6.78;;;1.50;;
18649;SDS011;9454;53.516;10.478;2023-03-26T13:19:56;10.98;;;2.08;;
18649;SDS011;9454;53.516;10.478;2023-03-26T13:23:08;13.27;;;2.15;;
18649;SDS011;9454;53.516;10.478;2023-03-26T13:26:19;10.55;;;1.70;;
18649;SDS011;9454;53.516;10.478;2023-03-26T13:29:29;9.82;;;1.17;;
18649;SDS011;9454;53.516;10.478;2023-03-26T13:32:41;10.52;;;1.45;;
18649;SDS011;9454;53.516;10.478;2023-03-26T13:35:57;7.22;;;1.42;;
18649;SDS011;9454;53.516;10.478;2023-03-26T13:39:23;7.88;;;1.67;;
18649;SDS011;9454;53.516;10.478;2023-03-26T13:42:37;8.82;;;1.45;;
18649;SDS011;9454;53.516;10.478;2023-03-26T13:45:50;8.85;;;1.30;;
18649;SDS011;9454;53.516;10.478;2023-03-26T13:48:56;5.65;;;1.17;;
18649;SDS011;9454;53.516;10.478;2023-03-26T13:52:07;7.70;;;1.27;;
18649;SDS011;9454;53.516;10.478;2023-03-26T13:55:18;8.40;;;1.15;;
18649;SDS011;9454;53.516;10.478;2023-03-26T13:58:27;13.90;;;1.52;;
18649;SDS011;9454;53.516;10.478;2023-03-26T14:01:36;8.02;;;1.52;;
18649;SDS011;9454;53.516;10.478;2023-03-26T14:04:45;12.45;;;1.58;;
18649;SDS011;9454;53.516;10.478;2023-03-26T14:07:53;8.75;;;1.10;;
18649;SDS011;9454;53.516;10.478;2023-03-26T14:11:03;12.77;;;1.42;;
18649;SDS011;9454;53.516;10.478;2023-03-26T14:14:08;14.05;;;1.48;;
18649;SDS011;9454;53.516;10.478;2023-03-26T14:17:16;6.47;;;1.42;;
18649;SDS011;9454;53.516;10.478;2023-03-26T14:23:57;10.77;;;1.55;;
18649;SDS011;9454;53.516;10.478;2023-03-26T14:27:12;7.85;;;1.48;;
18649;SDS011;9454;53.516;10.478;2023-03-26T14:33:48;10.73;;;1.25;;
18649;SDS011;9454;53.516;10.478;2023-03-26T14:37:14;4.60;;;1.33;;
18649;SDS011;9454;53.516;10.478;2023-03-26T14:40:43;8.98;;;1.58;;
18649;SDS011;9454;53.516;10.478;2023-03-26T14:47:12;11.98;;;1.77;;
18649;SDS011;9454;53.516;10.478;2023-03-26T14:53:47;6.68;;;1.60;;
18649;SDS011;9454;53.516;10.478;2023-03-26T15:07:21;7.53;;;1.38;;
18649;SDS011;9454;53.516;10.478;2023-03-26T15:10:42;17.60;;;2.25;;
18649;SDS011;9454;53.516;10.478;2023-03-26T15:14:09;10.75;;;1.45;;
18649;SDS011;9454;53.516;10.478;2023-03-26T15:17:31;12.55;;;1.70;;
18649;SDS011;9454;53.516;10.478;2023-03-26T15:20:47;9.65;;;1.27;;
18649;SDS011;9454;53.516;10.478;2023-03-26T15:24:08;8.98;;;1.50;;
18649;SDS011;9454;53.516;10.478;2023-03-26T15:27:30;5.93;;;1.30;;
18649;SDS011;9454;53.516;10.478;2023-03-26T15:37:54;7.55;;;1.42;;
18649;SDS011;9454;53.516;10.478;2023-03-26T15:41:07;8.18;;;1.30;;
18649;SDS011;9454;53.516;10.478;2023-03-26T15:48:02;9.60;;;1.05;;
18649;SDS011;9454;53.516;10.478;2023-03-26T15:51:19;5.20;;;1.52;;
18649;SDS011;9454;53.516;10.478;2023-03-26T15:54:25;3.50;;;1.00;;
18649;SDS011;9454;53.516;10.478;2023-03-26T15:57:36;9.77;;;1.52;;
18649;SDS011;9454;53.516;10.478;2023-03-26T16:00:46;7.35;;;1.73;;
18649;SDS011;9454;53.516;10.478;2023-03-26T16:03:54;9.05;;;1.45;;
18649;SDS011;9454;53.516;10.478;2023-03-26T16:07:01;7.72;;;1.30;;
18649;SDS011;9454;53.516;10.478;2023-03-26T16:10:33;9.30;;;1.55;;
18649;SDS011;9454;53.516;10.478;2023-03-26T16:13:40;7.28;;;1.83;;
18649;SDS011;9454;53.516;10.478;2023-03-26T16:16:56;11.15;;;1.80;;
18649;SDS011;9454;53.516;10.478;2023-03-26T16:20:12;3.80;;;1.13;;
18649;SDS011;9454;53.516;10.478;2023-03-26T16:23:24;8.95;;;1.55;;
18649;SDS011;9454;53.516;10.478;2023-03-26T16:32:09;11.45;;;2.13;;
18649;SDS011;9454;53.516;10.478;2023-03-26T16:38:47;6.95;;;1.25;;
18649;SDS011;9454;53.516;10.478;2023-03-26T16:42:00;3.05;;;0.90;;
18649;SDS011;9454;53.516;10.478;2023-03-26T16:45:16;7.75;;;1.50;;
18649;SDS011;9454;53.516;10.478;2023-03-26T16:48:29;10.82;;;1.08;;
18649;SDS011;9454;53.516;10.478;2023-03-26T16:51:44;17.45;;;1.90;;
18649;SDS011;9454;53.516;10.478;2023-03-26T16:54:56;9.05;;;1.33;;
18649;SDS011;9454;53.516;10.478;2023-03-26T17:03:22;13.23;;;1.58;;
18649;SDS011;9454;53.516;10.478;2023-03-26T17:10:06;6.55;;;1.15;;
18649;SDS011;9454;53.516;10.478;2023-03-26T18:06:47;4.32;;;1.52;;
18649;SDS011;9454;53.516;10.478;2023-03-26T18:10:05;7.25;;;2.05;;
18649;SDS011;9454;53.516;10.478;2023-03-26T18:13:21;11.43;;;1.27;;
18649;SDS011;9454;53.516;10.478;2023-03-26T18:16:35;9.07;;;1.27;;
18649;SDS011;9454;53.516;10.478;2023-03-26T18:19:47;5.70;;;1.40;;
18649;SDS011;9454;53.516;10.478;2023-03-26T18:22:53;3.63;;;1.00;;
18649;SDS011;9454;53.516;10.478;2023-03-26T18:26:07;7.03;;;1.85;;
18649;SDS011;9454;53.516;10.478;2023-03-26T18:29:19;11.25;;;1.77;;
18649;SDS011;9454;53.516;10.478;2023-03-26T18:32:25;4.75;;;1.33;;
18649;SDS011;9454;53.516;10.478;2023-03-26T18:35:36;5.43;;;1.08;;
18649;SDS011;9454;53.516;10.478;2023-03-26T18:38:46;3.05;;;0.88;;
18649;SDS011;9454;53.516;10.478;2023-03-26T18:41:50;9.65;;;1.30;;
18649;SDS011;9454;53.516;10.478;2023-03-26T18:44:58;4.60;;;0.82;;
18649;SDS011;9454;53.516;10.478;2023-03-26T18:48:07;4.68;;;1.10;;
18649;SDS011;9454;53.516;10.478;2023-03-26T18:51:14;5.50;;;1.08;;
18649;SDS011;9454;53.516;10.478;2023-03-26T18:54:25;4.75;;;1.15;;
18649;SDS011;9454;53.516;10.478;2023-03-26T18:57:33;3.58;;;1.00;;
18649;SDS011;9454;53.516;10.478;2023-03-26T19:00:38;6.60;;;0.90;;
18649;SDS011;9454;53.516;10.478;2023-03-26T19:03:46;3.95;;;0.75;;
18649;SDS011;9454;53.516;10.478;2023-03-26T19:06:52;3.22;;;1.08;;
18649;SDS011;9454;53.516;10.478;2023-03-26T19:09:57;9.68;;;1.38;;
18649;SDS011;9454;53.516;10.478;2023-03-26T19:13:03;4.55;;;0.90;;
18649;SDS011;9454;53.516;10.478;2023-03-26T19:16:08;3.35;;;0.75;;
18649;SDS011;9454;53.516;10.478;2023-03-26T19:19:17;5.20;;;1.05;;
18649;SDS011;9454;53.516;10.478;2023-03-26T19:22:27;2.45;;;0.75;;
18649;SDS011;9454;53.516;10.478;2023-03-26T19:25:37;3.65;;;1.00;;
18649;SDS011;9454;53.516;10.478;2023-03-26T19:28:44;5.47;;;1.40;;
18649;SDS011;9454;53.516;10.478;2023-03-26T19:31:51;8.07;;;1.23;;
18649;SDS011;9454;53.516;10.478;2023-03-26T19:34:57;5.80;;;1.10;;
18649;SDS011;9454;53.516;10.478;2023-03-26T19:38:11;6.10;;;1.10;;
18649;SDS011;9454;53.516;10.478;2023-03-26T19:41:19;10.00;;;1.05;;
18649;SDS011;9454;53.516;10.478;2023-03-26T19:44:25;5.18;;;0.98;;
18649;SDS011;9454;53.516;10.478;2023-03-26T19:47:30;4.20;;;1.08;;
18649;SDS011;9454;53.516;10.478;2023-03-26T19:51:13;5.30;;;1.08;;
18649;SDS011;9454;53.516;10.478;2023-03-26T19:54:25;4.80;;;1.05;;
18649;SDS011;9454;53.516;10.478;2023-03-26T19:57:33;6.15;;;0.90;;
18649;SDS011;9454;53.516;10.478;2023-03-26T20:00:38;4.07;;;0.98;;
18649;SDS011;9454;53.516;10.478;2023-03-26T20:03:45;5.35;;;1.00;;
18649;SDS011;9454;53.516;10.478;2023-03-26T20:06:53;1.55;;;0.70;;
18649;SDS011;9454;53.516;10.478;2023-03-26T20:09:59;5.00;;;1.00;;
18649;SDS011;9454;53.516;10.478;2023-03-26T20:13:14;7.93;;;0.75;;
18649;SDS011;9454;53.516;10.478;2023-03-26T20:16:20;5.80;;;1.60;;
18649;SDS011;9454;53.516;10.478;2023-03-26T20:19:25;7.82;;;0.90;;
18649;SDS011;9454;53.516;10.478;2023-03-26T20:22:37;1.95;;;0.98;;
18649;SDS011;9454;53.516;10.478;2023-03-26T20:25:46;3.25;;;0.70;;
18649;SDS011;9454;53.516;10.478;2023-03-26T20:28:58;3.15;;;0.77;;
18649;SDS011;9454;53.516;10.478;2023-03-26T20:32:05;2.90;;;0.85;;
18649;SDS011;9454;53.516;10.478;2023-03-26T20:35:12;3.58;;;0.57;;
18649;SDS011;9454;53.516;10.478;2023-03-26T20:38:17;1.60;;;0.70;;
18649;SDS011;9454;53.516;10.478;2023-03-26T20:41:38;0.80;;;0.60;;
18649;SDS011;9454;53.516;10.478;2023-03-26T20:44:51;1.65;;;1.08;;
18649;SDS011;9454;53.516;10.478;2023-03-26T20:47:59;0.40;;;0.40;;
18649;SDS011;9454;53.516;10.478;2023-03-26T20:51:07;1.42;;;0.60;;
18649;SDS011;9454;53.516;10.478;2023-03-26T20:54:15;0.40;;;0.40;;
18649;SDS011;9454;53.516;10.478;2023-03-26T20:57:19;1.55;;;0.63;;
18649;SDS011;9454;53.516;10.478;2023-03-26T21:00:28;0.82;;;0.60;;
18649;SDS011;9454;53.516;10.478;2023-03-26T21:03:32;2.08;;;0.60;;
18649;SDS011;9454;53.516;10.478;2023-03-26T21:06:46;1.02;;;0.68;;
18649;SDS011;9454;53.516;10.478;2023-03-26T21:09:51;0.60;;;0.50;;
18649;SDS011;9454;53.516;10.478;2023-03-26T21:13:04;0.47;;;0.47;;
18649;SDS011;9454;53.516;10.478;2023-03-26T21:16:13;3.00;;;0.70;;
18649;SDS011;9454;53.516;10.478;2023-03-26T21:19:19;1.98;;;0.75;;
18649;SDS011;9454;53.516;10.478;2023-03-26T21:22:26;2.78;;;0.60;;
18649;SDS011;9454;53.516;10.478;2023-03-26T21:25:38;9.48;;;1.02;;
18649;SDS011;9454;53.516;10.478;2023-03-26T21:28:44;4.40;;;0.75;;
18649;SDS011;9454;53.516;10.478;2023-03-26T21:31:52;4.22;;;0.70;;